createdAt,value
2023-12-11T00:01:10.209Z,99758.72
2023-12-11T00:03:38.689Z,99751.03
2023-12-11T00:06:08.589Z,99750.06
2023-12-11T00:08:37.119Z,99743.72
2023-12-11T00:11:05.366Z,99741.75
2023-12-11T00:13:33.406Z,99735.06
2023-12-11T00:16:01.381Z,99751.22
2023-12-11T00:18:29.457Z,99742.31
2023-12-11T00:20:57.438Z,99751.22
2023-12-11T00:23:27.340Z,99755.72
2023-12-11T00:25:55.235Z,99749.81
2023-12-11T00:28:23.112Z,99752.81
2023-12-11T00:30:52.225Z,99746.88
2023-12-11T00:33:20.394Z,99747.16
2023-12-11T00:35:48.398Z,99755.03
2023-12-11T00:38:16.276Z,99754.00
2023-12-11T00:40:47.836Z,99754.97
2023-12-11T00:43:15.823Z,99738.91
2023-12-11T00:45:43.938Z,99753.94
2023-12-11T00:48:12.036Z,99742.75
2023-12-11T00:50:40.015Z,99743.78
2023-12-11T00:53:08.368Z,99746.78
2023-12-11T00:55:36.330Z,99742.38
2023-12-11T00:58:05.654Z,99734.97
2023-12-11T01:00:33.636Z,99740.41
2023-12-11T01:03:01.926Z,99732.97
2023-12-11T01:05:29.869Z,99733.47
2023-12-11T01:07:58.108Z,99733.66
2023-12-11T01:10:26.007Z,99729.44
2023-12-11T01:12:53.912Z,99731.41
2023-12-11T01:15:23.400Z,99718.09
2023-12-11T01:17:51.582Z,99716.88
2023-12-11T01:20:19.679Z,99719.88
2023-12-11T01:22:47.582Z,99719.94
2023-12-11T01:25:15.667Z,99706.34
2023-12-11T01:27:43.581Z,99701.63
2023-12-11T01:30:12.033Z,99702.41
2023-12-11T01:32:41.307Z,99693.75
2023-12-11T01:35:09.920Z,99695.25
2023-12-11T01:37:37.827Z,99688.88
2023-12-11T01:40:08.445Z,99679.75
2023-12-11T01:42:36.614Z,99690.16
2023-12-11T01:45:04.935Z,99676.09
2023-12-11T01:47:33.337Z,99667.44
2023-12-11T01:50:02.937Z,99673.66
2023-12-11T01:52:30.978Z,99656.06
2023-12-11T01:54:58.985Z,99679.09
2023-12-11T01:57:27.013Z,99663.69
2023-12-11T01:59:55.013Z,99669.13
2023-12-11T02:02:22.942Z,99665.88
2023-12-11T02:04:55.148Z,99636.53
2023-12-11T02:07:24.597Z,99644.88
2023-12-11T02:09:52.596Z,99634.00
2023-12-11T02:12:20.509Z,99651.09
2023-12-11T02:14:48.387Z,99635.78
2023-12-11T02:17:16.313Z,99627.91
2023-12-11T02:19:44.381Z,99617.94
2023-12-11T02:22:12.686Z,99639.72
2023-12-11T02:24:48.475Z,99635.78
2023-12-11T02:27:18.032Z,99642.16
2023-12-11T02:29:45.920Z,99636.19
2023-12-11T02:32:17.523Z,99620.78
2023-12-11T02:34:47.798Z,99614.81
2023-12-11T02:37:15.807Z,99616.47
2023-12-11T02:39:43.736Z,99623.63
2023-12-11T02:42:11.604Z,99598.38
2023-12-11T02:44:40.935Z,99611.44
2023-12-11T02:47:08.909Z,99618.09
2023-12-11T02:49:36.937Z,99593.91
2023-12-11T02:52:05.193Z,99599.63
2023-12-11T02:54:33.107Z,99607.84
2023-12-11T02:57:01.055Z,99587.31
2023-12-11T02:59:28.921Z,99595.00
2023-12-11T03:01:58.253Z,99574.75
2023-12-11T03:04:26.362Z,99580.66
2023-12-11T03:06:54.436Z,99569.75
2023-12-11T03:09:22.329Z,99572.94
2023-12-11T03:11:50.205Z,99559.84
2023-12-11T03:14:18.090Z,99559.84
2023-12-11T03:16:49.284Z,99559.84
2023-12-11T03:19:19.101Z,99557.59
2023-12-11T03:21:47.137Z,99556.84
2023-12-11T03:24:15.016Z,99546.69
2023-12-11T03:26:42.893Z,99542.78
2023-12-11T03:29:10.778Z,99533.84
2023-12-11T03:31:39.204Z,99540.50
2023-12-11T03:34:07.220Z,99543.78
2023-12-11T03:36:36.544Z,99542.00
2023-12-11T03:39:04.517Z,99539.78
2023-12-11T03:41:32.412Z,99553.38
2023-12-11T03:44:00.299Z,99543.97
2023-12-11T03:46:28.202Z,99532.63
2023-12-11T03:48:56.223Z,99549.41
2023-12-11T03:51:24.211Z,99541.53
2023-12-11T03:53:53.460Z,99537.31
2023-12-11T03:56:21.334Z,99547.25
2023-12-11T03:58:49.205Z,99547.31
2023-12-11T04:01:17.214Z,99535.00
2023-12-11T04:03:45.276Z,99552.34
2023-12-11T04:06:13.310Z,99540.53
2023-12-11T04:08:42.990Z,99541.97
2023-12-11T04:11:12.233Z,99545.88
2023-12-11T04:13:40.295Z,99538.69
2023-12-11T04:16:08.706Z,99532.69
2023-12-11T04:18:37.876Z,99514.88
2023-12-11T04:21:06.496Z,99508.22
2023-12-11T04:23:34.387Z,99528.22
2023-12-11T04:26:03.324Z,99522.03
2023-12-11T04:28:32.591Z,99522.75
2023-12-11T04:31:00.575Z,99522.03
2023-12-11T04:33:28.613Z,99508.47
2023-12-11T04:35:56.872Z,99517.66
2023-12-11T04:38:24.790Z,99516.91
2023-12-11T04:40:52.704Z,99509.50
2023-12-11T04:43:20.576Z,99512.50
2023-12-11T04:45:50.327Z,99500.88
2023-12-11T04:48:18.356Z,99506.09
2023-12-11T04:50:46.313Z,99511.81
2023-12-11T04:53:14.235Z,99504.88
2023-12-11T04:55:42.469Z,99514.53
2023-12-11T04:58:10.681Z,99497.47
2023-12-11T05:00:39.075Z,99494.47
2023-12-11T05:03:08.385Z,99498.69
2023-12-11T05:05:37.369Z,99493.31
2023-12-11T05:08:05.773Z,99480.94
2023-12-11T05:10:35.200Z,99483.38
2023-12-11T05:13:03.221Z,99489.28
2023-12-11T05:15:31.121Z,99485.13
2023-12-11T05:17:59.041Z,99477.72
2023-12-11T05:20:28.302Z,99476.00
2023-12-11T05:22:56.204Z,99474.81
2023-12-11T05:25:24.321Z,99466.41
2023-12-11T05:27:52.300Z,99456.81
2023-12-11T05:30:23.556Z,99456.06
2023-12-11T05:32:52.515Z,99471.97
2023-12-11T05:35:20.454Z,99459.59
2023-12-11T05:37:49.736Z,99449.22
2023-12-11T05:40:22.637Z,99463.06
2023-12-11T05:42:52.339Z,99477.16
2023-12-11T05:45:20.398Z,99472.44
2023-12-11T05:47:48.521Z,99466.97
2023-12-11T05:50:16.539Z,99473.56
2023-12-11T05:52:45.417Z,99458.19
2023-12-11T05:55:15.149Z,99472.78
2023-12-11T05:57:44.142Z,99454.19
2023-12-11T06:00:14.013Z,99461.63
2023-12-11T06:02:42.075Z,99465.06
2023-12-11T06:05:10.781Z,99448.28
2023-12-11T06:07:38.773Z,99470.78
2023-12-11T06:10:07.826Z,99454.47
2023-12-11T06:12:37.149Z,99445.06
2023-12-11T06:15:05.788Z,99455.22
2023-12-11T06:17:34.126Z,99449.97
2023-12-11T06:20:02.527Z,99440.78
2023-12-11T06:22:30.364Z,99448.44
2023-12-11T06:24:58.283Z,99448.06
2023-12-11T06:27:28.941Z,99444.06
2023-12-11T06:29:58.506Z,99441.84
2023-12-11T06:32:26.412Z,99452.91
2023-12-11T06:34:54.563Z,99440.81
2023-12-11T06:37:22.585Z,99458.34
2023-12-11T06:39:50.902Z,99448.44
2023-12-11T06:42:18.802Z,99429.84
2023-12-11T06:44:46.757Z,99433.06
2023-12-11T06:47:16.008Z,99427.13
2023-12-11T06:49:45.509Z,99428.44
2023-12-11T06:52:14.007Z,99433.13
2023-12-11T06:54:42.054Z,99434.59
2023-12-11T06:57:09.933Z,99448.72
2023-12-11T06:59:37.852Z,99437.56
2023-12-11T07:02:06.507Z,99464.94
2023-12-11T07:04:35.951Z,99451.84
2023-12-11T07:07:04.038Z,99439.44
2023-12-11T07:09:32.412Z,99458.19
2023-12-11T07:12:00.403Z,99444.88
2023-12-11T07:14:28.313Z,99453.31
2023-12-11T07:16:56.198Z,99438.25
2023-12-11T07:19:24.228Z,99434.56
2023-12-11T07:21:56.237Z,99452.34
2023-12-11T07:24:26.435Z,99456.31
2023-12-11T07:26:54.341Z,99455.09
2023-12-11T07:29:22.240Z,99456.13
2023-12-11T07:31:50.120Z,99466.25
2023-12-11T07:34:18.426Z,99448.22
2023-12-11T07:36:46.445Z,99461.34
2023-12-11T07:39:15.698Z,99467.53
2023-12-11T07:41:43.665Z,99473.47
2023-12-11T07:44:11.584Z,99489.50
2023-12-11T07:46:42.284Z,99491.75
2023-12-11T07:49:13.878Z,99506.09
2023-12-11T07:51:41.985Z,99509.84
2023-12-11T07:54:09.944Z,99504.59
2023-12-11T07:56:39.221Z,99512.28
2023-12-11T07:59:07.353Z,99527.09
2023-12-11T08:01:35.413Z,99530.31
2023-12-11T08:04:04.001Z,99542.22
2023-12-11T08:06:32.554Z,99542.22
2023-12-11T08:09:01.391Z,99554.59
2023-12-11T08:11:29.919Z,99559.75
2023-12-11T08:13:59.727Z,99567.91
2023-12-11T08:16:28.059Z,99562.47
2023-12-11T08:18:56.006Z,99585.00
2023-12-11T08:21:25.238Z,99592.38
2023-12-11T08:23:53.739Z,99602.53
2023-12-11T08:26:22.141Z,99616.88
2023-12-11T08:28:50.628Z,99624.56
2023-12-11T08:31:20.170Z,99636.19
2023-12-11T08:33:48.498Z,99646.63
2023-12-11T08:36:16.480Z,99643.16
2023-12-11T08:38:44.486Z,99653.53
2023-12-11T08:41:12.495Z,99655.06
2023-12-11T08:43:40.437Z,99661.72
2023-12-11T08:46:08.405Z,99670.63
2023-12-11T08:48:37.909Z,99672.41
2023-12-11T08:51:06.927Z,99695.94
2023-12-11T08:53:34.837Z,99691.72
2023-12-11T08:56:02.745Z,99698.38
2023-12-11T08:58:30.713Z,99710.03
2023-12-11T09:00:58.670Z,99727.56
2023-12-11T09:03:26.888Z,99719.41
2023-12-11T09:05:57.706Z,99730.00
2023-12-11T09:08:26.669Z,99740.88
2023-12-11T09:10:54.962Z,99744.09
2023-12-11T09:13:26.517Z,99751.50
2023-12-11T09:15:56.425Z,99746.03
2023-12-11T09:18:24.647Z,99755.72
2023-12-11T09:20:52.638Z,99758.91
2023-12-11T09:23:22.074Z,99766.59
2023-12-11T09:25:49.984Z,99770.06
2023-12-11T09:28:17.930Z,99775.81
2023-12-11T09:30:45.963Z,99783.00
2023-12-11T09:33:14.533Z,99791.47
2023-12-11T09:35:42.941Z,99800.19
2023-12-11T09:38:11.428Z,99803.94
2023-12-11T09:40:40.890Z,99821.31
2023-12-11T09:43:11.058Z,99827.50
2023-12-11T09:45:40.326Z,99830.22
2023-12-11T09:48:14.410Z,99835.94
2023-12-11T09:50:43.554Z,99853.78
2023-12-11T09:53:11.667Z,99854.06
2023-12-11T09:55:40.914Z,99872.66
2023-12-11T09:58:10.103Z,99878.09
2023-12-11T10:00:38.565Z,99877.06
2023-12-11T10:03:09.339Z,99887.38
2023-12-11T10:05:38.248Z,99892.25
2023-12-11T10:08:06.413Z,99913.47
2023-12-11T10:10:35.344Z,99910.44
2023-12-11T10:13:05.002Z,99921.34
2023-12-11T10:15:34.400Z,99930.53
2023-12-11T10:18:07.225Z,99955.78
2023-12-11T10:20:36.078Z,99950.31
2023-12-11T10:23:15.070Z,99952.13
2023-12-11T10:25:46.470Z,99975.69
2023-12-11T10:28:17.570Z,99974.75
2023-12-11T10:30:52.607Z,99964.91
2023-12-11T10:33:21.944Z,99958.06
2023-12-11T10:35:50.565Z,99971.00
2023-12-11T10:38:25.392Z,99973.09
2023-12-11T10:40:54.108Z,99976.09
2023-12-11T10:43:23.534Z,99983.22
2023-12-11T10:45:52.781Z,99991.88
2023-12-11T10:48:22.449Z,99994.75
2023-12-11T10:50:51.549Z,100003.41
2023-12-11T10:53:20.319Z,100001.91
2023-12-11T10:55:50.624Z,100004.63
2023-12-11T10:58:19.052Z,100007.34
2023-12-11T11:00:49.024Z,100012.78
2023-12-11T11:03:19.606Z,100017.28
2023-12-11T11:05:48.754Z,100005.78
2023-12-11T11:08:24.622Z,100026.31
2023-12-11T11:10:56.957Z,100021.53
2023-12-11T11:13:32.141Z,100011.28
2023-12-11T11:16:01.435Z,100029.03
2023-12-11T11:18:29.483Z,100033.69
2023-12-11T11:21:13.788Z,100027.50
2023-12-11T11:23:44.406Z,100037.81
2023-12-11T11:26:35.754Z,100053.22
2023-12-11T11:29:04.960Z,100047.28
2023-12-11T11:31:58.607Z,100049.84
2023-12-11T11:34:45.742Z,100057.25
2023-12-11T11:37:18.435Z,100065.66
2023-12-11T11:40:00.270Z,100075.56
2023-12-11T11:42:29.421Z,100075.09
2023-12-11T11:44:58.407Z,100082.31
2023-12-11T11:47:27.953Z,100077.38
2023-12-11T11:50:04.803Z,100081.28
2023-12-11T11:52:32.898Z,100083.72
2023-12-11T11:55:07.182Z,100092.75
2023-12-11T11:57:35.057Z,100095.06
2023-12-11T12:00:02.947Z,100094.63
2023-12-11T12:02:34.453Z,100101.09
2023-12-11T12:05:10.985Z,100097.38
2023-12-11T12:07:40.586Z,100102.56
2023-12-11T12:10:09.647Z,100110.03
2023-12-11T12:12:37.570Z,100118.34
2023-12-11T12:15:08.817Z,100118.00
2023-12-11T12:17:39.863Z,100118.56
2023-12-11T12:20:12.312Z,100122.13
2023-12-11T12:22:40.569Z,100121.72
2023-12-11T12:25:16.864Z,100118.88
2023-12-11T12:27:45.858Z,100119.66
2023-12-11T12:30:15.014Z,100131.75
2023-12-11T12:32:44.927Z,100141.91
2023-12-11T12:35:13.367Z,100139.63
2023-12-11T12:37:41.601Z,100151.28
2023-12-11T12:40:10.741Z,100143.88
2023-12-11T12:42:39.033Z,100154.78
2023-12-11T12:45:08.114Z,100151.75
2023-12-11T12:47:36.079Z,100158.69
2023-12-11T12:50:08.050Z,100164.88
2023-12-11T12:52:37.819Z,100166.13
2023-12-11T12:55:06.603Z,100172.78
2023-12-11T12:57:37.561Z,100177.47
2023-12-11T13:00:06.850Z,100183.84
2023-12-11T13:02:34.794Z,100178.84
2023-12-11T13:05:03.179Z,100189.44
2023-12-11T13:07:32.817Z,100194.16
2023-12-11T13:10:11.464Z,100185.69
2023-12-11T13:12:39.590Z,100190.09
2023-12-11T13:15:08.908Z,100188.88
2023-12-11T13:17:37.327Z,100195.69
2023-12-11T13:20:06.206Z,100190.63
2023-12-11T13:22:39.934Z,100191.66
2023-12-11T13:25:09.234Z,100192.91
2023-12-11T13:27:37.129Z,100188.94
2023-12-11T13:30:06.807Z,100209.25
2023-12-11T13:32:36.516Z,100214.41
2023-12-11T13:35:04.464Z,100212.56
2023-12-11T13:37:32.512Z,100224.28
2023-12-11T13:40:01.951Z,100226.88
2023-12-11T13:42:29.776Z,100222.06
2023-12-11T13:44:59.743Z,100221.94
2023-12-11T13:47:28.172Z,100226.34
2023-12-11T13:49:56.299Z,100234.50
2023-12-11T13:52:24.398Z,100240.72
2023-12-11T13:54:52.580Z,100241.91
2023-12-11T13:57:21.968Z,100251.59
2023-12-11T13:59:50.453Z,100246.91
2023-12-11T14:02:57.963Z,100244.19
2023-12-11T14:05:07.208Z,100248.88
2023-12-11T14:07:35.392Z,100256.28
2023-12-11T14:10:04.465Z,100254.75
2023-12-11T14:12:33.659Z,100266.88
2023-12-11T14:15:01.574Z,100262.94
2023-12-11T14:17:29.782Z,100263.41
2023-12-11T14:19:57.854Z,100265.66
2023-12-11T14:22:25.761Z,100271.84
2023-12-11T14:24:54.649Z,100276.53
2023-12-11T14:27:24.113Z,100281.25
2023-12-11T14:29:54.050Z,100291.69
2023-12-11T14:32:21.908Z,100290.16
2023-12-11T14:34:49.943Z,100287.44
2023-12-11T14:37:18.091Z,100294.84
2023-12-11T14:39:46.584Z,100302.28
2023-12-11T14:42:14.424Z,100305.44
2023-12-11T14:44:42.486Z,100303.94
2023-12-11T14:47:11.637Z,100307.84
2023-12-11T14:49:39.709Z,100318.44
2023-12-11T14:52:07.750Z,100331.00
2023-12-11T14:54:35.694Z,100328.28
2023-12-11T14:57:03.998Z,100332.69
2023-12-11T14:59:31.843Z,100328.47
2023-12-11T15:01:59.720Z,100341.31
2023-12-11T15:04:29.062Z,100335.56
2023-12-11T15:06:57.009Z,100354.63
2023-12-11T15:09:24.836Z,100350.38
2023-12-11T15:11:52.673Z,100352.34
2023-12-11T15:14:21.063Z,100351.59
2023-12-11T15:16:49.277Z,100354.31
2023-12-11T15:19:17.672Z,100356.28
2023-12-11T15:21:47.158Z,100359.00
2023-12-11T15:24:15.077Z,100364.91
2023-12-11T15:26:42.882Z,100366.88
2023-12-11T15:29:10.707Z,100373.50
2023-12-11T15:31:38.535Z,100364.28
2023-12-11T15:34:06.469Z,100373.06
2023-12-11T15:36:34.350Z,100373.06
2023-12-11T15:39:04.709Z,100373.69
2023-12-11T15:41:33.334Z,100378.81
2023-12-11T15:44:01.182Z,100374.56
2023-12-11T15:46:29.123Z,100380.50
2023-12-11T15:48:57.167Z,100379.44
2023-12-11T15:51:26.949Z,100381.81
2023-12-11T15:53:54.830Z,100384.69
2023-12-11T15:56:24.013Z,100384.53
2023-12-11T15:58:51.847Z,100385.13
2023-12-11T16:01:20.119Z,100389.22
2023-12-11T16:03:48.178Z,100387.38
2023-12-11T16:06:16.108Z,100387.38
2023-12-11T16:08:43.956Z,100391.63
2023-12-11T16:11:15.361Z,100396.31
2023-12-11T16:13:44.794Z,100400.97
2023-12-11T16:16:13.271Z,100404.16
2023-12-11T16:18:41.715Z,100401.88
2023-12-11T16:21:09.794Z,100408.06
2023-12-11T16:23:38.055Z,100411.25
2023-12-11T16:26:06.395Z,100409.75
2023-12-11T16:28:35.389Z,100418.66
2023-12-11T16:31:04.902Z,100423.34
2023-12-11T16:33:32.949Z,100424.09
2023-12-11T16:36:00.904Z,100422.16
2023-12-11T16:38:28.696Z,100424.38
2023-12-11T16:40:56.699Z,100435.28
2023-12-11T16:43:24.638Z,100428.16
2023-12-11T16:45:52.561Z,100428.94
2023-12-11T16:48:21.889Z,100424.56
2023-12-11T16:50:49.966Z,100428.03
2023-12-11T16:53:17.881Z,100437.69
2023-12-11T16:55:45.705Z,100438.91
2023-12-11T16:58:13.590Z,100441.31
2023-12-11T17:00:41.506Z,100454.19
2023-12-11T17:03:09.383Z,100456.59
2023-12-11T17:05:38.624Z,100459.75
2023-12-11T17:08:06.959Z,100458.56
2023-12-11T17:10:34.909Z,100455.53
2023-12-11T17:13:03.561Z,100461.72
2023-12-11T17:15:31.456Z,100470.31
2023-12-11T17:17:59.366Z,100471.97
2023-12-11T17:20:27.298Z,100479.38
2023-12-11T17:22:56.511Z,100484.06
2023-12-11T17:25:24.412Z,100485.25
2023-12-11T17:27:52.379Z,100484.97
2023-12-11T17:30:20.834Z,100489.34
2023-12-11T17:32:49.230Z,100495.66
2023-12-11T17:35:18.372Z,100495.03
2023-12-11T17:37:46.321Z,100495.94
2023-12-11T17:40:16.688Z,100495.63
2023-12-11T17:42:45.075Z,100501.06
2023-12-11T17:45:13.923Z,100503.03
2023-12-11T17:47:42.075Z,100494.13
2023-12-11T17:50:11.063Z,100496.22
2023-12-11T17:52:39.535Z,100496.22
2023-12-11T17:55:08.380Z,100499.69
2023-12-11T17:57:37.946Z,100509.06
2023-12-11T18:00:07.896Z,100517.22
2023-12-11T18:02:35.766Z,100516.78
2023-12-11T18:05:05.933Z,100527.31
2023-12-11T18:07:34.359Z,100524.94
2023-12-11T18:10:02.406Z,100519.94
2023-12-11T18:12:30.308Z,100520.38
2023-12-11T18:15:00.544Z,100531.22
2023-12-11T18:17:28.539Z,100528.97
2023-12-11T18:19:56.578Z,100529.72
2023-12-11T18:22:25.980Z,100531.38
2023-12-11T18:24:54.047Z,100532.56
2023-12-11T18:27:22.064Z,100539.22
2023-12-11T18:29:49.885Z,100542.38
2023-12-11T18:32:19.335Z,100549.03
2023-12-11T18:34:54.018Z,100533.91
2023-12-11T18:37:23.044Z,100549.91
2023-12-11T18:39:50.966Z,100543.38
2023-12-11T18:42:18.832Z,100538.41
2023-12-11T18:44:46.732Z,100548.22
2023-12-11T18:47:14.554Z,100552.28
2023-12-11T18:49:44.390Z,100559.31
2023-12-11T18:52:15.510Z,100564.47
2023-12-11T18:54:43.924Z,100564.59
2023-12-11T18:57:13.058Z,100564.25
2023-12-11T18:59:40.914Z,100560.03
2023-12-11T19:02:09.158Z,100568.63
2023-12-11T19:04:37.384Z,100567.44
2023-12-11T19:07:07.197Z,100574.81
2023-12-11T19:09:35.112Z,100572.09
2023-12-11T19:12:03.131Z,100577.84
2023-12-11T19:14:30.966Z,100579.06
2023-12-11T19:16:58.882Z,100574.81
2023-12-11T19:19:26.789Z,100589.16
2023-12-11T19:21:54.811Z,100580.69
2023-12-11T19:24:24.794Z,100582.22
2023-12-11T19:26:52.626Z,100582.63
2023-12-11T19:29:20.489Z,100588.06
2023-12-11T19:31:48.410Z,100586.88
2023-12-11T19:34:17.090Z,100583.09
2023-12-11T19:36:45.144Z,100588.53
2023-12-11T19:39:13.290Z,100593.22
2023-12-11T19:41:44.699Z,100595.16
2023-12-11T19:44:12.586Z,100598.66
2023-12-11T19:46:44.616Z,100600.25
2023-12-11T19:49:12.927Z,100599.06
2023-12-11T19:51:44.109Z,100600.72
2023-12-11T19:54:12.028Z,100607.97
2023-12-11T19:56:39.855Z,100615.69
2023-12-11T19:59:09.357Z,100616.88
2023-12-11T20:01:37.212Z,100614.06
2023-12-11T20:04:05.269Z,100615.13
2023-12-11T20:06:33.158Z,100607.72
2023-12-11T20:09:01.017Z,100606.53
2023-12-11T20:11:29.608Z,100614.69
2023-12-11T20:13:57.555Z,100621.31
2023-12-11T20:16:26.885Z,100624.34
2023-12-11T20:18:54.957Z,100622.72
2023-12-11T20:21:22.927Z,100620.31
2023-12-11T20:23:51.104Z,100611.72
2023-12-11T20:26:22.506Z,100626.06
2023-12-11T20:28:50.370Z,100617.03
2023-12-11T20:31:19.029Z,100622.03
2023-12-11T20:33:48.649Z,100624.75
2023-12-11T20:36:17.654Z,100632.00
2023-12-11T20:38:45.671Z,100641.69
2023-12-11T20:41:20.533Z,100639.72
2023-12-11T20:43:49.472Z,100631.13
2023-12-11T20:46:24.655Z,100640.38
2023-12-11T20:48:55.200Z,100631.00
2023-12-11T20:51:24.126Z,100628.59
2023-12-11T20:53:53.343Z,100642.94
2023-12-11T20:56:21.893Z,100640.53
2023-12-11T20:58:50.560Z,100639.31
2023-12-11T21:01:28.257Z,100645.06
2023-12-11T21:03:58.514Z,100648.25
2023-12-11T21:06:27.532Z,100645.06
2023-12-11T21:08:56.260Z,100657.03
2023-12-11T21:11:24.679Z,100653.88
2023-12-11T21:13:52.533Z,100655.84
2023-12-11T21:16:20.976Z,100649.19
2023-12-11T21:18:50.557Z,100663.09
2023-12-11T21:21:21.232Z,100668.84
2023-12-11T21:23:49.800Z,100670.81
2023-12-11T21:26:20.965Z,100675.38
2023-12-11T21:29:00.528Z,100683.09
2023-12-11T21:31:30.479Z,100681.88
2023-12-11T21:33:59.678Z,100680.69
2023-12-11T21:36:31.766Z,100687.00
2023-12-11T21:38:59.918Z,100688.97
2023-12-11T21:41:27.813Z,100677.34
2023-12-11T21:43:57.493Z,100688.63
2023-12-11T21:46:27.046Z,100696.47
2023-12-11T21:48:58.018Z,100682.88
2023-12-11T21:51:29.828Z,100689.84
2023-12-11T21:53:57.844Z,100693.75
2023-12-11T21:56:26.902Z,100692.69
2023-12-11T21:58:55.165Z,100696.94
2023-12-11T22:01:23.163Z,100694.22
2023-12-11T22:03:51.714Z,100705.53
2023-12-11T22:06:20.067Z,100712.91
2023-12-11T22:08:49.237Z,100705.94
2023-12-11T22:11:18.022Z,100702.47
2023-12-11T22:13:47.048Z,100699.00
2023-12-11T22:16:16.490Z,100698.69
2023-12-11T22:18:45.266Z,100699.13
2023-12-11T22:21:13.216Z,100697.63
2023-12-11T22:23:41.044Z,100691.28
2023-12-11T22:26:10.241Z,100697.19
2023-12-11T22:28:39.505Z,100698.38
2023-12-11T22:31:07.598Z,100703.47
2023-12-11T22:33:35.486Z,100698.50
2023-12-11T22:36:04.232Z,100694.25
2023-12-11T22:38:32.078Z,100700.16
2023-12-11T22:41:00.964Z,100702.53
2023-12-11T22:43:30.204Z,100710.38
2023-12-11T22:45:58.496Z,100708.41
2023-12-11T22:48:26.514Z,100714.28
2023-12-11T22:50:54.401Z,100720.94
2023-12-11T22:53:22.245Z,100724.06
2023-12-11T22:55:50.066Z,100718.63
2023-12-11T22:58:18.298Z,100722.25
2023-12-11T23:00:47.595Z,100714.53
2023-12-11T23:03:15.523Z,100715.72
2023-12-11T23:05:43.400Z,100715.84
2023-12-11T23:08:11.279Z,100713.59
2023-12-11T23:10:39.178Z,100713.59
2023-12-11T23:13:07.053Z,100716.72
2023-12-11T23:15:34.877Z,100718.69
2023-12-11T23:18:04.848Z,100718.78
2023-12-11T23:20:32.668Z,100718.78
2023-12-11T23:23:00.465Z,100713.03
2023-12-11T23:25:28.313Z,100710.03
2023-12-11T23:27:56.187Z,100717.06
2023-12-11T23:30:24.042Z,100713.59
2023-12-11T23:32:52.066Z,100716.63
2023-12-11T23:35:21.655Z,100711.97
2023-12-11T23:37:49.522Z,100717.84
2023-12-11T23:40:17.381Z,100717.41
2023-12-11T23:42:45.243Z,100713.50
2023-12-11T23:45:13.072Z,100719.25
2023-12-11T23:47:40.994Z,100712.59
2023-12-11T23:50:09.434Z,100705.66
2023-12-11T23:52:38.746Z,100708.38
2023-12-11T23:55:07.743Z,100702.63
2023-12-11T23:57:36.500Z,100703.38
